sensor_id;sensor_type;location;lat;lon;timestamp;P1;durP1;ratioP1;P2;durP2;ratioP2
5279;SDS011;2663;53.588;10.010;2022-08-07T00:00:29;10.70;;;6.70;;
5279;SDS011;2663;53.588;10.010;2022-08-07T00:02:55;10.97;;;7.00;;
5279;SDS011;2663;53.588;10.010;2022-08-07T00:05:23;10.90;;;6.37;;
5279;SDS011;2663;53.588;10.010;2022-08-07T00:07:51;9.87;;;6.60;;
5279;SDS011;2663;53.588;10.010;2022-08-07T00:10:25;7.50;;;5.90;;
5279;SDS011;2663;53.588;10.010;2022-08-07T00:12:56;11.77;;;6.83;;
5279;SDS011;2663;53.588;10.010;2022-08-07T00:15:28;9.83;;;6.20;;
5279;SDS011;2663;53.588;10.010;2022-08-07T00:18:12;11.50;;;6.70;;
5279;SDS011;2663;53.588;10.010;2022-08-07T00:20:49;10.33;;;6.20;;
5279;SDS011;2663;53.588;10.010;2022-08-07T00:23:17;10.97;;;6.60;;
5279;SDS011;2663;53.588;10.010;2022-08-07T00:25:46;15.83;;;7.77;;
5279;SDS011;2663;53.588;10.010;2022-08-07T00:28:24;8.67;;;6.70;;
5279;SDS011;2663;53.588;10.010;2022-08-07T00:30:58;13.40;;;6.60;;
5279;SDS011;2663;53.588;10.010;2022-08-07T00:33:29;15.67;;;6.80;;
5279;SDS011;2663;53.588;10.010;2022-08-07T00:35:58;15.30;;;7.73;;
5279;SDS011;2663;53.588;10.010;2022-08-07T00:38:25;13.40;;;7.10;;
5279;SDS011;2663;53.588;10.010;2022-08-07T00:40:57;12.63;;;7.33;;
5279;SDS011;2663;53.588;10.010;2022-08-07T00:43:24;11.90;;;6.83;;
5279;SDS011;2663;53.588;10.010;2022-08-07T00:46:11;8.77;;;5.93;;
5279;SDS011;2663;53.588;10.010;2022-08-07T00:48:39;11.80;;;6.10;;
5279;SDS011;2663;53.588;10.010;2022-08-07T00:51:07;13.07;;;7.50;;
5279;SDS011;2663;53.588;10.010;2022-08-07T00:53:35;10.30;;;6.63;;
5279;SDS011;2663;53.588;10.010;2022-08-07T00:56:15;14.70;;;6.57;;
5279;SDS011;2663;53.588;10.010;2022-08-07T00:58:43;10.50;;;7.50;;
5279;SDS011;2663;53.588;10.010;2022-08-07T01:01:15;10.50;;;6.43;;
5279;SDS011;2663;53.588;10.010;2022-08-07T01:03:43;17.20;;;7.90;;
5279;SDS011;2663;53.588;10.010;2022-08-07T01:06:26;13.07;;;7.37;;
5279;SDS011;2663;53.588;10.010;2022-08-07T01:08:54;13.83;;;5.77;;
5279;SDS011;2663;53.588;10.010;2022-08-07T01:11:27;12.27;;;6.70;;
5279;SDS011;2663;53.588;10.010;2022-08-07T01:14:18;11.17;;;6.40;;
5279;SDS011;2663;53.588;10.010;2022-08-07T01:16:53;9.87;;;6.63;;
5279;SDS011;2663;53.588;10.010;2022-08-07T01:19:20;12.77;;;6.87;;
5279;SDS011;2663;53.588;10.010;2022-08-07T01:21:49;12.53;;;6.30;;
5279;SDS011;2663;53.588;10.010;2022-08-07T01:24:20;9.20;;;6.03;;
5279;SDS011;2663;53.588;10.010;2022-08-07T01:26:49;17.03;;;7.43;;
5279;SDS011;2663;53.588;10.010;2022-08-07T01:29:17;11.30;;;6.80;;
5279;SDS011;2663;53.588;10.010;2022-08-07T01:31:45;9.43;;;6.70;;
5279;SDS011;2663;53.588;10.010;2022-08-07T01:34:13;10.20;;;6.97;;
5279;SDS011;2663;53.588;10.010;2022-08-07T01:36:43;11.97;;;6.53;;
5279;SDS011;2663;53.588;10.010;2022-08-07T01:39:18;11.27;;;7.30;;
5279;SDS011;2663;53.588;10.010;2022-08-07T01:41:45;10.00;;;6.67;;
5279;SDS011;2663;53.588;10.010;2022-08-07T01:44:32;11.10;;;7.17;;
5279;SDS011;2663;53.588;10.010;2022-08-07T01:47:00;11.23;;;7.03;;
5279;SDS011;2663;53.588;10.010;2022-08-07T01:49:47;11.50;;;7.13;;
5279;SDS011;2663;53.588;10.010;2022-08-07T01:52:18;11.00;;;7.00;;
5279;SDS011;2663;53.588;10.010;2022-08-07T01:54:47;12.30;;;6.73;;
5279;SDS011;2663;53.588;10.010;2022-08-07T01:57:18;13.93;;;7.00;;
5279;SDS011;2663;53.588;10.010;2022-08-07T02:00:09;13.87;;;6.30;;
5279;SDS011;2663;53.588;10.010;2022-08-07T02:02:41;10.20;;;6.37;;
5279;SDS011;2663;53.588;10.010;2022-08-07T02:05:35;10.30;;;7.70;;
5279;SDS011;2663;53.588;10.010;2022-08-07T02:08:21;10.20;;;6.83;;
5279;SDS011;2663;53.588;10.010;2022-08-07T02:10:50;9.90;;;6.30;;
5279;SDS011;2663;53.588;10.010;2022-08-07T02:13:24;11.00;;;6.37;;
5279;SDS011;2663;53.588;10.010;2022-08-07T02:16:13;11.47;;;7.27;;
5279;SDS011;2663;53.588;10.010;2022-08-07T02:18:45;13.23;;;6.53;;
5279;SDS011;2663;53.588;10.010;2022-08-07T02:21:16;13.90;;;7.50;;
5279;SDS011;2663;53.588;10.010;2022-08-07T02:23:44;12.70;;;6.70;;
5279;SDS011;2663;53.588;10.010;2022-08-07T02:26:14;11.40;;;6.97;;
5279;SDS011;2663;53.588;10.010;2022-08-07T02:29:00;11.33;;;6.30;;
5279;SDS011;2663;53.588;10.010;2022-08-07T02:31:28;13.87;;;6.50;;
5279;SDS011;2663;53.588;10.010;2022-08-07T02:33:58;10.43;;;6.63;;
5279;SDS011;2663;53.588;10.010;2022-08-07T02:36:29;10.00;;;6.73;;
5279;SDS011;2663;53.588;10.010;2022-08-07T02:38:59;11.73;;;6.93;;
5279;SDS011;2663;53.588;10.010;2022-08-07T02:41:43;15.57;;;6.77;;
5279;SDS011;2663;53.588;10.010;2022-08-07T02:44:16;9.87;;;7.10;;
5279;SDS011;2663;53.588;10.010;2022-08-07T02:46:44;11.80;;;7.60;;
5279;SDS011;2663;53.588;10.010;2022-08-07T02:49:17;10.80;;;6.93;;
5279;SDS011;2663;53.588;10.010;2022-08-07T02:52:04;14.27;;;7.50;;
5279;SDS011;2663;53.588;10.010;2022-08-07T02:54:39;13.80;;;7.03;;
5279;SDS011;2663;53.588;10.010;2022-08-07T02:57:09;10.90;;;5.93;;
5279;SDS011;2663;53.588;10.010;2022-08-07T02:59:42;14.53;;;6.70;;
5279;SDS011;2663;53.588;10.010;2022-08-07T03:02:26;14.30;;;7.93;;
5279;SDS011;2663;53.588;10.010;2022-08-07T03:04:53;13.00;;;7.27;;
5279;SDS011;2663;53.588;10.010;2022-08-07T03:07:22;19.97;;;7.47;;
5279;SDS011;2663;53.588;10.010;2022-08-07T03:10:10;12.70;;;7.10;;
5279;SDS011;2663;53.588;10.010;2022-08-07T03:12:39;11.83;;;7.27;;
5279;SDS011;2663;53.588;10.010;2022-08-07T03:15:08;10.60;;;6.80;;
5279;SDS011;2663;53.588;10.010;2022-08-07T03:17:37;12.23;;;6.70;;
5279;SDS011;2663;53.588;10.010;2022-08-07T03:20:19;14.07;;;7.17;;
5279;SDS011;2663;53.588;10.010;2022-08-07T03:22:47;12.23;;;7.20;;
5279;SDS011;2663;53.588;10.010;2022-08-07T03:25:16;17.20;;;7.80;;
5279;SDS011;2663;53.588;10.010;2022-08-07T03:27:47;13.03;;;7.53;;
5279;SDS011;2663;53.588;10.010;2022-08-07T03:30:34;12.83;;;7.43;;
5279;SDS011;2663;53.588;10.010;2022-08-07T03:33:02;15.93;;;6.93;;
5279;SDS011;2663;53.588;10.010;2022-08-07T03:35:33;12.20;;;7.40;;
5279;SDS011;2663;53.588;10.010;2022-08-07T03:38:15;16.60;;;7.87;;
5279;SDS011;2663;53.588;10.010;2022-08-07T03:40:52;20.83;;;7.50;;
5279;SDS011;2663;53.588;10.010;2022-08-07T03:43:22;9.90;;;6.90;;
5279;SDS011;2663;53.588;10.010;2022-08-07T03:45:57;13.50;;;7.23;;
5279;SDS011;2663;53.588;10.010;2022-08-07T03:48:27;17.80;;;6.50;;
5279;SDS011;2663;53.588;10.010;2022-08-07T03:50:55;12.50;;;7.33;;
5279;SDS011;2663;53.588;10.010;2022-08-07T03:53:23;11.90;;;7.40;;
5279;SDS011;2663;53.588;10.010;2022-08-07T03:56:10;10.23;;;6.83;;
5279;SDS011;2663;53.588;10.010;2022-08-07T03:58:39;13.90;;;7.90;;
5279;SDS011;2663;53.588;10.010;2022-08-07T04:01:26;11.13;;;7.67;;
5279;SDS011;2663;53.588;10.010;2022-08-07T04:03:57;13.83;;;8.10;;
5279;SDS011;2663;53.588;10.010;2022-08-07T04:06:24;15.20;;;8.10;;
5279;SDS011;2663;53.588;10.010;2022-08-07T04:09:04;14.23;;;7.40;;
5279;SDS011;2663;53.588;10.010;2022-08-07T04:11:40;20.83;;;6.97;;
5279;SDS011;2663;53.588;10.010;2022-08-07T04:14:29;12.83;;;7.40;;
5279;SDS011;2663;53.588;10.010;2022-08-07T04:17:03;11.80;;;7.10;;
5279;SDS011;2663;53.588;10.010;2022-08-07T04:19:45;13.30;;;7.93;;
5279;SDS011;2663;53.588;10.010;2022-08-07T04:22:21;12.20;;;7.87;;
5279;SDS011;2663;53.588;10.010;2022-08-07T04:24:55;14.97;;;7.93;;
5279;SDS011;2663;53.588;10.010;2022-08-07T04:27:26;9.53;;;7.03;;
5279;SDS011;2663;53.588;10.010;2022-08-07T04:29:53;14.97;;;9.37;;
5279;SDS011;2663;53.588;10.010;2022-08-07T04:32:27;14.93;;;8.83;;
5279;SDS011;2663;53.588;10.010;2022-08-07T04:35:03;13.20;;;8.53;;
5279;SDS011;2663;53.588;10.010;2022-08-07T04:37:33;10.80;;;7.50;;
5279;SDS011;2663;53.588;10.010;2022-08-07T04:40:20;13.67;;;8.13;;
5279;SDS011;2663;53.588;10.010;2022-08-07T04:42:54;15.20;;;9.00;;
5279;SDS011;2663;53.588;10.010;2022-08-07T04:45:27;13.20;;;7.80;;
5279;SDS011;2663;53.588;10.010;2022-08-07T04:51:03;12.80;;;7.83;;
5279;SDS011;2663;53.588;10.010;2022-08-07T04:53:42;14.40;;;8.37;;
5279;SDS011;2663;53.588;10.010;2022-08-07T04:56:51;15.70;;;8.40;;
5279;SDS011;2663;53.588;10.010;2022-08-07T04:59:45;15.50;;;9.37;;
5279;SDS011;2663;53.588;10.010;2022-08-07T05:05:17;11.10;;;7.60;;
5279;SDS011;2663;53.588;10.010;2022-08-07T05:08:17;17.13;;;8.57;;
5279;SDS011;2663;53.588;10.010;2022-08-07T05:11:14;12.53;;;7.80;;
5279;SDS011;2663;53.588;10.010;2022-08-07T05:14:13;15.10;;;8.63;;
5279;SDS011;2663;53.588;10.010;2022-08-07T05:17:09;14.30;;;8.17;;
5279;SDS011;2663;53.588;10.010;2022-08-07T05:19:58;14.77;;;8.03;;
5279;SDS011;2663;53.588;10.010;2022-08-07T05:22:25;14.77;;;8.77;;
5279;SDS011;2663;53.588;10.010;2022-08-07T05:24:53;13.20;;;7.83;;
5279;SDS011;2663;53.588;10.010;2022-08-07T05:27:24;26.63;;;9.30;;
5279;SDS011;2663;53.588;10.010;2022-08-07T05:30:13;14.17;;;9.23;;
5279;SDS011;2663;53.588;10.010;2022-08-07T05:32:55;14.07;;;9.00;;
5279;SDS011;2663;53.588;10.010;2022-08-07T05:35:27;18.23;;;8.60;;
5279;SDS011;2663;53.588;10.010;2022-08-07T05:38:02;21.53;;;8.70;;
5279;SDS011;2663;53.588;10.010;2022-08-07T05:40:35;20.50;;;10.73;;
5279;SDS011;2663;53.588;10.010;2022-08-07T05:43:16;15.57;;;10.20;;
5279;SDS011;2663;53.588;10.010;2022-08-07T05:45:44;23.40;;;13.27;;
5279;SDS011;2663;53.588;10.010;2022-08-07T05:48:13;30.07;;;15.37;;
5279;SDS011;2663;53.588;10.010;2022-08-07T05:50:41;19.37;;;9.50;;
5279;SDS011;2663;53.588;10.010;2022-08-07T05:53:08;16.50;;;10.70;;
5279;SDS011;2663;53.588;10.010;2022-08-07T05:55:56;25.57;;;9.63;;
5279;SDS011;2663;53.588;10.010;2022-08-07T05:58:30;19.43;;;11.17;;
5279;SDS011;2663;53.588;10.010;2022-08-07T06:01:02;18.53;;;10.17;;
5279;SDS011;2663;53.588;10.010;2022-08-07T06:03:35;23.57;;;10.90;;
5279;SDS011;2663;53.588;10.010;2022-08-07T06:06:23;16.13;;;10.03;;
5279;SDS011;2663;53.588;10.010;2022-08-07T06:08:57;25.03;;;14.00;;
5279;SDS011;2663;53.588;10.010;2022-08-07T06:11:24;32.40;;;14.30;;
5279;SDS011;2663;53.588;10.010;2022-08-07T06:13:51;17.00;;;9.40;;
5279;SDS011;2663;53.588;10.010;2022-08-07T06:16:38;19.07;;;9.73;;
5279;SDS011;2663;53.588;10.010;2022-08-07T06:19:08;19.07;;;9.37;;
5279;SDS011;2663;53.588;10.010;2022-08-07T06:21:43;14.20;;;7.60;;
5279;SDS011;2663;53.588;10.010;2022-08-07T06:24:31;19.23;;;10.70;;
5279;SDS011;2663;53.588;10.010;2022-08-07T06:27:19;15.07;;;7.00;;
5279;SDS011;2663;53.588;10.010;2022-08-07T06:30:07;12.13;;;6.40;;
5279;SDS011;2663;53.588;10.010;2022-08-07T06:32:54;9.80;;;6.87;;
5279;SDS011;2663;53.588;10.010;2022-08-07T06:35:20;12.20;;;6.50;;
5279;SDS011;2663;53.588;10.010;2022-08-07T06:37:47;9.83;;;5.60;;
5279;SDS011;2663;53.588;10.010;2022-08-07T06:40:18;10.37;;;5.73;;
5279;SDS011;2663;53.588;10.010;2022-08-07T06:42:46;8.83;;;6.03;;
5279;SDS011;2663;53.588;10.010;2022-08-07T06:45:17;10.43;;;6.30;;
5279;SDS011;2663;53.588;10.010;2022-08-07T06:47:46;8.20;;;5.43;;
5279;SDS011;2663;53.588;10.010;2022-08-07T06:50:24;6.97;;;4.90;;
5279;SDS011;2663;53.588;10.010;2022-08-07T06:52:55;10.83;;;6.10;;
5279;SDS011;2663;53.588;10.010;2022-08-07T06:55:25;10.03;;;4.60;;
5279;SDS011;2663;53.588;10.010;2022-08-07T06:58:14;7.67;;;4.87;;
5279;SDS011;2663;53.588;10.010;2022-08-07T07:00:49;15.93;;;7.77;;
5279;SDS011;2663;53.588;10.010;2022-08-07T07:03:18;55.77;;;22.93;;
5279;SDS011;2663;53.588;10.010;2022-08-07T07:06:06;66.17;;;39.43;;
5279;SDS011;2663;53.588;10.010;2022-08-07T07:08:36;29.70;;;20.50;;
5279;SDS011;2663;53.588;10.010;2022-08-07T07:11:11;17.20;;;10.00;;
5279;SDS011;2663;53.588;10.010;2022-08-07T07:13:58;9.70;;;5.50;;
5279;SDS011;2663;53.588;10.010;2022-08-07T07:16:29;11.63;;;5.40;;
5279;SDS011;2663;53.588;10.010;2022-08-07T07:19:16;7.97;;;5.23;;
5279;SDS011;2663;53.588;10.010;2022-08-07T07:22:07;14.17;;;5.87;;
5279;SDS011;2663;53.588;10.010;2022-08-07T07:24:54;7.37;;;4.87;;
5279;SDS011;2663;53.588;10.010;2022-08-07T07:28:29;16.40;;;4.50;;
5279;SDS011;2663;53.588;10.010;2022-08-07T07:31:04;9.07;;;4.50;;
5279;SDS011;2663;53.588;10.010;2022-08-07T07:33:42;5.87;;;4.33;;
5279;SDS011;2663;53.588;10.010;2022-08-07T07:36:22;6.10;;;4.60;;
5279;SDS011;2663;53.588;10.010;2022-08-07T07:38:57;5.47;;;4.17;;
5279;SDS011;2663;53.588;10.010;2022-08-07T07:41:26;5.33;;;3.97;;
5279;SDS011;2663;53.588;10.010;2022-08-07T07:44:15;5.50;;;3.60;;
5279;SDS011;2663;53.588;10.010;2022-08-07T07:46:51;13.47;;;3.93;;
5279;SDS011;2663;53.588;10.010;2022-08-07T07:49:39;8.63;;;4.70;;
5279;SDS011;2663;53.588;10.010;2022-08-07T07:52:26;6.87;;;3.87;;
5279;SDS011;2663;53.588;10.010;2022-08-07T07:54:55;8.50;;;3.70;;
5279;SDS011;2663;53.588;10.010;2022-08-07T07:57:23;8.23;;;4.60;;
5279;SDS011;2663;53.588;10.010;2022-08-07T08:00:12;5.77;;;3.97;;
5279;SDS011;2663;53.588;10.010;2022-08-07T08:02:55;8.03;;;4.67;;
5279;SDS011;2663;53.588;10.010;2022-08-07T08:05:31;6.37;;;3.50;;
5279;SDS011;2663;53.588;10.010;2022-08-07T08:08:19;6.70;;;3.83;;
5279;SDS011;2663;53.588;10.010;2022-08-07T08:11:02;6.43;;;4.03;;
5279;SDS011;2663;53.588;10.010;2022-08-07T08:13:30;6.83;;;3.70;;
5279;SDS011;2663;53.588;10.010;2022-08-07T08:16:18;4.57;;;3.13;;
5279;SDS011;2663;53.588;10.010;2022-08-07T08:18:50;3.70;;;3.30;;
5279;SDS011;2663;53.588;10.010;2022-08-07T08:21:20;6.00;;;3.57;;
5279;SDS011;2663;53.588;10.010;2022-08-07T08:24:26;5.23;;;3.30;;
5279;SDS011;2663;53.588;10.010;2022-08-07T08:27:33;5.70;;;3.10;;
5279;SDS011;2663;53.588;10.010;2022-08-07T08:30:06;3.60;;;3.30;;
5279;SDS011;2663;53.588;10.010;2022-08-07T08:32:43;5.03;;;3.80;;
5279;SDS011;2663;53.588;10.010;2022-08-07T08:35:23;6.20;;;3.50;;
5279;SDS011;2663;53.588;10.010;2022-08-07T08:37:55;3.53;;;3.10;;
5279;SDS011;2663;53.588;10.010;2022-08-07T08:40:31;4.80;;;3.87;;
5279;SDS011;2663;53.588;10.010;2022-08-07T08:43:16;8.00;;;3.73;;
5279;SDS011;2663;53.588;10.010;2022-08-07T08:46:10;5.47;;;3.27;;
5279;SDS011;2663;53.588;10.010;2022-08-07T08:51:31;5.77;;;3.53;;
5279;SDS011;2663;53.588;10.010;2022-08-07T08:54:31;4.53;;;3.10;;
5279;SDS011;2663;53.588;10.010;2022-08-07T08:57:07;3.80;;;3.30;;
5279;SDS011;2663;53.588;10.010;2022-08-07T08:59:52;3.90;;;2.97;;
5279;SDS011;2663;53.588;10.010;2022-08-07T09:05:36;4.10;;;3.70;;
5279;SDS011;2663;53.588;10.010;2022-08-07T09:08:24;3.77;;;3.10;;
5279;SDS011;2663;53.588;10.010;2022-08-07T09:14:18;7.77;;;4.07;;
5279;SDS011;2663;53.588;10.010;2022-08-07T09:17:11;8.00;;;4.30;;
5279;SDS011;2663;53.588;10.010;2022-08-07T09:20:26;9.50;;;3.90;;
5279;SDS011;2663;53.588;10.010;2022-08-07T09:29:22;4.67;;;3.43;;
5279;SDS011;2663;53.588;10.010;2022-08-07T09:34:50;4.47;;;3.63;;
5279;SDS011;2663;53.588;10.010;2022-08-07T09:43:30;5.70;;;4.10;;
5279;SDS011;2663;53.588;10.010;2022-08-07T09:47:33;5.83;;;4.07;;
5279;SDS011;2663;53.588;10.010;2022-08-07T09:50:07;5.90;;;4.00;;
5279;SDS011;2663;53.588;10.010;2022-08-07T09:52:55;6.90;;;3.50;;
5279;SDS011;2663;53.588;10.010;2022-08-07T10:18:07;7.23;;;3.80;;
5279;SDS011;2663;53.588;10.010;2022-08-07T10:29:24;5.10;;;3.50;;
5279;SDS011;2663;53.588;10.010;2022-08-07T10:35:25;5.20;;;3.60;;
5279;SDS011;2663;53.588;10.010;2022-08-07T10:38:38;5.33;;;4.00;;
5279;SDS011;2663;53.588;10.010;2022-08-07T10:41:32;4.97;;;3.50;;
5279;SDS011;2663;53.588;10.010;2022-08-07T10:44:33;3.00;;;2.70;;
5279;SDS011;2663;53.588;10.010;2022-08-07T10:47:23;5.77;;;3.93;;
5279;SDS011;2663;53.588;10.010;2022-08-07T10:50:29;6.50;;;3.50;;
5279;SDS011;2663;53.588;10.010;2022-08-07T10:53:03;5.60;;;4.00;;
5279;SDS011;2663;53.588;10.010;2022-08-07T10:55:52;3.50;;;3.00;;
5279;SDS011;2663;53.588;10.010;2022-08-07T10:59:03;3.20;;;2.90;;
5279;SDS011;2663;53.588;10.010;2022-08-07T11:13:50;5.60;;;3.43;;
5279;SDS011;2663;53.588;10.010;2022-08-07T11:16:55;5.30;;;3.80;;
5279;SDS011;2663;53.588;10.010;2022-08-07T11:20:07;5.27;;;3.90;;
5279;SDS011;2663;53.588;10.010;2022-08-07T11:22:50;3.40;;;2.97;;
5279;SDS011;2663;53.588;10.010;2022-08-07T11:25:39;5.63;;;3.67;;
5279;SDS011;2663;53.588;10.010;2022-08-07T11:59:46;6.77;;;3.33;;
5279;SDS011;2663;53.588;10.010;2022-08-07T12:02:46;4.20;;;3.07;;
5279;SDS011;2663;53.588;10.010;2022-08-07T12:06:19;3.27;;;2.97;;
5279;SDS011;2663;53.588;10.010;2022-08-07T12:12:24;3.57;;;3.27;;
5279;SDS011;2663;53.588;10.010;2022-08-07T12:15:13;6.80;;;3.37;;
5279;SDS011;2663;53.588;10.010;2022-08-07T12:20:50;8.40;;;4.27;;
5279;SDS011;2663;53.588;10.010;2022-08-07T12:23:30;4.80;;;4.07;;
5279;SDS011;2663;53.588;10.010;2022-08-07T12:26:27;3.27;;;2.90;;
5279;SDS011;2663;53.588;10.010;2022-08-07T12:29:16;4.53;;;3.50;;
5279;SDS011;2663;53.588;10.010;2022-08-07T12:32:16;4.50;;;3.40;;
5279;SDS011;2663;53.588;10.010;2022-08-07T12:35:05;4.53;;;3.10;;
5279;SDS011;2663;53.588;10.010;2022-08-07T12:37:38;4.40;;;3.50;;
5279;SDS011;2663;53.588;10.010;2022-08-07T12:40:27;5.20;;;3.47;;
5279;SDS011;2663;53.588;10.010;2022-08-07T12:43:15;4.27;;;3.00;;
5279;SDS011;2663;53.588;10.010;2022-08-07T12:46:07;3.40;;;3.10;;
5279;SDS011;2663;53.588;10.010;2022-08-07T12:48:44;10.07;;;3.20;;
5279;SDS011;2663;53.588;10.010;2022-08-07T12:51:23;6.03;;;3.40;;
5279;SDS011;2663;53.588;10.010;2022-08-07T12:54:24;6.20;;;3.50;;
5279;SDS011;2663;53.588;10.010;2022-08-07T12:57:20;4.23;;;3.50;;
5279;SDS011;2663;53.588;10.010;2022-08-07T13:00:13;4.63;;;3.50;;
5279;SDS011;2663;53.588;10.010;2022-08-07T13:06:13;5.70;;;3.50;;
5279;SDS011;2663;53.588;10.010;2022-08-07T13:09:33;3.93;;;3.50;;
5279;SDS011;2663;53.588;10.010;2022-08-07T13:15:35;5.10;;;2.90;;
5279;SDS011;2663;53.588;10.010;2022-08-07T13:18:30;5.23;;;3.80;;
5279;SDS011;2663;53.588;10.010;2022-08-07T13:30:04;4.20;;;2.80;;
5279;SDS011;2663;53.588;10.010;2022-08-07T13:32:49;6.33;;;3.43;;
5279;SDS011;2663;53.588;10.010;2022-08-07T13:35:29;7.97;;;4.00;;
5279;SDS011;2663;53.588;10.010;2022-08-07T13:41:20;7.23;;;3.80;;
5279;SDS011;2663;53.588;10.010;2022-08-07T13:44:13;5.07;;;3.73;;
5279;SDS011;2663;53.588;10.010;2022-08-07T13:46:51;5.47;;;3.30;;
5279;SDS011;2663;53.588;10.010;2022-08-07T13:49:25;4.70;;;3.50;;
5279;SDS011;2663;53.588;10.010;2022-08-07T13:52:24;4.50;;;3.30;;
5279;SDS011;2663;53.588;10.010;2022-08-07T13:55:05;6.70;;;3.70;;
5279;SDS011;2663;53.588;10.010;2022-08-07T13:57:45;4.73;;;3.27;;
5279;SDS011;2663;53.588;10.010;2022-08-07T14:00:34;3.53;;;3.23;;
5279;SDS011;2663;53.588;10.010;2022-08-07T14:03:23;6.53;;;4.03;;
5279;SDS011;2663;53.588;10.010;2022-08-07T14:05:55;8.60;;;3.20;;
5279;SDS011;2663;53.588;10.010;2022-08-07T14:08:23;5.13;;;3.90;;
5279;SDS011;2663;53.588;10.010;2022-08-07T14:10:50;2.97;;;2.60;;
5279;SDS011;2663;53.588;10.010;2022-08-07T14:13:39;5.00;;;3.73;;
5279;SDS011;2663;53.588;10.010;2022-08-07T14:16:13;8.80;;;3.40;;
5279;SDS011;2663;53.588;10.010;2022-08-07T14:18:44;4.73;;;3.63;;
5279;SDS011;2663;53.588;10.010;2022-08-07T14:21:32;4.77;;;3.50;;
5279;SDS011;2663;53.588;10.010;2022-08-07T14:24:40;3.43;;;3.03;;
5279;SDS011;2663;53.588;10.010;2022-08-07T14:27:11;3.60;;;3.30;;
5279;SDS011;2663;53.588;10.010;2022-08-07T14:30:00;5.43;;;3.20;;
5279;SDS011;2663;53.588;10.010;2022-08-07T14:32:44;4.50;;;3.00;;
5279;SDS011;2663;53.588;10.010;2022-08-07T14:35:24;4.33;;;3.63;;
5279;SDS011;2663;53.588;10.010;2022-08-07T14:38:11;3.33;;;2.80;;
5279;SDS011;2663;53.588;10.010;2022-08-07T14:41:00;3.50;;;3.20;;
5279;SDS011;2663;53.588;10.010;2022-08-07T14:43:38;6.60;;;2.80;;
5279;SDS011;2663;53.588;10.010;2022-08-07T14:46:27;2.70;;;2.50;;
5279;SDS011;2663;53.588;10.010;2022-08-07T14:48:59;3.00;;;2.77;;
5279;SDS011;2663;53.588;10.010;2022-08-07T14:51:47;4.13;;;3.57;;
5279;SDS011;2663;53.588;10.010;2022-08-07T14:54:36;3.93;;;3.37;;
5279;SDS011;2663;53.588;10.010;2022-08-07T14:57:11;5.40;;;3.37;;
5279;SDS011;2663;53.588;10.010;2022-08-07T14:59:45;7.20;;;3.13;;
5279;SDS011;2663;53.588;10.010;2022-08-07T15:02:32;3.83;;;3.00;;
5279;SDS011;2663;53.588;10.010;2022-08-07T15:05:04;3.30;;;2.97;;
5279;SDS011;2663;53.588;10.010;2022-08-07T15:07:48;4.20;;;2.97;;
5279;SDS011;2663;53.588;10.010;2022-08-07T15:10:19;3.20;;;2.87;;
5279;SDS011;2663;53.588;10.010;2022-08-07T15:13:09;6.83;;;2.83;;
5279;SDS011;2663;53.588;10.010;2022-08-07T15:15:48;4.70;;;3.57;;
5279;SDS011;2663;53.588;10.010;2022-08-07T15:18:19;3.37;;;3.07;;
5279;SDS011;2663;53.588;10.010;2022-08-07T15:21:05;3.87;;;3.03;;
5279;SDS011;2663;53.588;10.010;2022-08-07T15:23:57;3.40;;;3.00;;
5279;SDS011;2663;53.588;10.010;2022-08-07T15:26:48;4.40;;;3.73;;
5279;SDS011;2663;53.588;10.010;2022-08-07T15:29:22;4.67;;;3.40;;
5279;SDS011;2663;53.588;10.010;2022-08-07T15:32:15;3.97;;;2.80;;
5279;SDS011;2663;53.588;10.010;2022-08-07T15:35:05;3.90;;;2.80;;
5279;SDS011;2663;53.588;10.010;2022-08-07T15:37:37;6.77;;;3.40;;
5279;SDS011;2663;53.588;10.010;2022-08-07T15:40:27;4.20;;;3.30;;
5279;SDS011;2663;53.588;10.010;2022-08-07T15:43:13;4.93;;;2.77;;
5279;SDS011;2663;53.588;10.010;2022-08-07T15:46:13;3.30;;;2.60;;
5279;SDS011;2663;53.588;10.010;2022-08-07T15:49:05;4.57;;;2.80;;
5279;SDS011;2663;53.588;10.010;2022-08-07T15:51:55;5.50;;;2.70;;
5279;SDS011;2663;53.588;10.010;2022-08-07T15:54:24;4.20;;;3.37;;
5279;SDS011;2663;53.588;10.010;2022-08-07T15:56:59;4.97;;;3.13;;
5279;SDS011;2663;53.588;10.010;2022-08-07T15:59:30;3.87;;;2.90;;
5279;SDS011;2663;53.588;10.010;2022-08-07T16:02:08;4.33;;;3.40;;
5279;SDS011;2663;53.588;10.010;2022-08-07T16:04:40;4.30;;;3.60;;
5279;SDS011;2663;53.588;10.010;2022-08-07T16:07:09;3.83;;;2.93;;
5279;SDS011;2663;53.588;10.010;2022-08-07T16:10:10;3.80;;;2.47;;
5279;SDS011;2663;53.588;10.010;2022-08-07T16:12:56;4.40;;;2.80;;
5279;SDS011;2663;53.588;10.010;2022-08-07T16:22:34;11.30;;;3.27;;
5279;SDS011;2663;53.588;10.010;2022-08-07T16:25:31;9.47;;;3.60;;
5279;SDS011;2663;53.588;10.010;2022-08-07T16:34:18;5.13;;;3.30;;
5279;SDS011;2663;53.588;10.010;2022-08-07T16:43:02;4.37;;;2.47;;
5279;SDS011;2663;53.588;10.010;2022-08-07T17:01:35;3.33;;;2.80;;
5279;SDS011;2663;53.588;10.010;2022-08-07T17:10:43;4.57;;;2.43;;
5279;SDS011;2663;53.588;10.010;2022-08-07T17:16:45;13.60;;;2.77;;
5279;SDS011;2663;53.588;10.010;2022-08-07T17:19:36;4.67;;;3.20;;
5279;SDS011;2663;53.588;10.010;2022-08-07T17:22:39;5.73;;;2.70;;
5279;SDS011;2663;53.588;10.010;2022-08-07T17:25:23;3.20;;;2.90;;
5279;SDS011;2663;53.588;10.010;2022-08-07T17:28:16;3.97;;;2.93;;
5279;SDS011;2663;53.588;10.010;2022-08-07T17:30:59;4.23;;;3.10;;
5279;SDS011;2663;53.588;10.010;2022-08-07T17:33:49;4.13;;;2.87;;
5279;SDS011;2663;53.588;10.010;2022-08-07T17:36:47;7.50;;;4.80;;
5279;SDS011;2663;53.588;10.010;2022-08-07T17:45:26;4.10;;;3.33;;
5279;SDS011;2663;53.588;10.010;2022-08-07T17:53:15;4.60;;;3.47;;
5279;SDS011;2663;53.588;10.010;2022-08-07T17:56:30;3.53;;;2.80;;
5279;SDS011;2663;53.588;10.010;2022-08-07T17:59:02;4.83;;;2.87;;
5279;SDS011;2663;53.588;10.010;2022-08-07T18:01:46;7.23;;;3.13;;
5279;SDS011;2663;53.588;10.010;2022-08-07T18:04:24;4.10;;;2.40;;
5279;SDS011;2663;53.588;10.010;2022-08-07T18:07:29;3.00;;;2.50;;
5279;SDS011;2663;53.588;10.010;2022-08-07T18:10:11;5.47;;;3.40;;
5279;SDS011;2663;53.588;10.010;2022-08-07T18:18:45;7.20;;;3.67;;
5279;SDS011;2663;53.588;10.010;2022-08-07T18:21:35;3.30;;;2.53;;
5279;SDS011;2663;53.588;10.010;2022-08-07T18:24:29;4.37;;;3.47;;
5279;SDS011;2663;53.588;10.010;2022-08-07T18:27:07;3.13;;;2.73;;
5279;SDS011;2663;53.588;10.010;2022-08-07T18:30:04;4.10;;;3.43;;
5279;SDS011;2663;53.588;10.010;2022-08-07T18:33:12;4.93;;;3.20;;
5279;SDS011;2663;53.588;10.010;2022-08-07T18:42:35;5.60;;;3.03;;
5279;SDS011;2663;53.588;10.010;2022-08-07T18:45:18;20.93;;;3.70;;
5279;SDS011;2663;53.588;10.010;2022-08-07T18:48:12;6.13;;;3.07;;
5279;SDS011;2663;53.588;10.010;2022-08-07T18:51:33;3.30;;;2.60;;
5279;SDS011;2663;53.588;10.010;2022-08-07T18:54:32;4.33;;;2.80;;
5279;SDS011;2663;53.588;10.010;2022-08-07T19:00:42;5.30;;;2.60;;
5279;SDS011;2663;53.588;10.010;2022-08-07T19:03:25;2.77;;;2.20;;
5279;SDS011;2663;53.588;10.010;2022-08-07T19:06:14;3.90;;;2.97;;
5279;SDS011;2663;53.588;10.010;2022-08-07T19:08:55;6.77;;;2.80;;
5279;SDS011;2663;53.588;10.010;2022-08-07T19:11:56;5.73;;;3.20;;
5279;SDS011;2663;53.588;10.010;2022-08-07T19:14:41;3.30;;;3.00;;
5279;SDS011;2663;53.588;10.010;2022-08-07T19:17:21;6.30;;;2.53;;
5279;SDS011;2663;53.588;10.010;2022-08-07T19:20:23;3.90;;;2.77;;
5279;SDS011;2663;53.588;10.010;2022-08-07T19:23:14;4.23;;;3.07;;
5279;SDS011;2663;53.588;10.010;2022-08-07T19:26:11;7.17;;;2.83;;
5279;SDS011;2663;53.588;10.010;2022-08-07T19:28:54;6.90;;;2.97;;
5279;SDS011;2663;53.588;10.010;2022-08-07T19:31:50;3.30;;;2.17;;
5279;SDS011;2663;53.588;10.010;2022-08-07T19:34:48;2.83;;;2.53;;
5279;SDS011;2663;53.588;10.010;2022-08-07T19:37:22;4.57;;;3.00;;
5279;SDS011;2663;53.588;10.010;2022-08-07T19:40:09;5.53;;;2.60;;
5279;SDS011;2663;53.588;10.010;2022-08-07T19:42:40;3.60;;;2.67;;
5279;SDS011;2663;53.588;10.010;2022-08-07T19:45:12;4.20;;;2.63;;